Time;durP1;ratioP1;P1;durP2;ratioP2;P2;SDS_P1;SDS_P2;PMS_P1;PMS_P2;Temp;Humidity;BMP_temperature;BMP_pressure;BME280_temperature;BME280_humidity;BME280_pressure;Samples;Min_cycle;Max_cycle;Signal;HPM_P1;HPM_P2
2023/08/13 00:00:00;;;;;;;5.70;4.00;;;;;;;;;;6242672;28;20059;-77
2023/08/13 00:03:02;;;;;;;57.85;5.05;;;;;;;;;;6255428;28;20045;-77
2023/08/13 00:06:04;;;;;;;34.70;4.40;;;;;;;;;;6252397;28;20045;-76
2023/08/13 00:09:06;;;;;;;30.05;4.30;;;;;;;;;;6268402;28;20525;-78
2023/08/13 00:12:08;;;;;;;7.63;3.55;;;;;;;;;;6248995;28;20120;-78
2023/08/13 00:15:11;;;;;;;8.88;3.35;;;;;;;;;;6267622;28;20037;-77
2023/08/13 00:18:13;;;;;;;67.90;6.35;;;;;;;;;;6267731;28;20129;-78
2023/08/13 00:21:14;;;;;;;9.80;4.18;;;;;;;;;;6269025;28;20045;-78
2023/08/13 00:24:16;;;;;;;18.00;4.25;;;;;;;;;;6270187;28;20041;-76
2023/08/13 00:27:18;;;;;;;9.75;3.45;;;;;;;;;;6268692;28;20053;-76
2023/08/13 00:30:19;;;;;;;8.10;2.85;;;;;;;;;;6247795;28;20545;-77
2023/08/13 00:33:21;;;;;;;18.98;2.60;;;;;;;;;;6283553;28;20091;-78
2023/08/13 00:36:23;;;;;;;27.20;3.80;;;;;;;;;;6253356;28;20049;-77
2023/08/13 00:39:24;;;;;;;17.33;2.55;;;;;;;;;;6253229;28;20053;-78
2023/08/13 00:42:26;;;;;;;17.98;2.75;;;;;;;;;;6274131;28;20041;-78
2023/08/13 00:45:32;;;;;;;26.73;2.97;;;;;;;;;;6272512;28;20064;-78
2023/08/13 00:48:36;;;;;;;27.88;2.88;;;;;;;;;;6255413;28;20049;-78
2023/08/13 00:51:38;;;;;;;19.88;2.30;;;;;;;;;;6251757;28;20519;-78
2023/08/13 00:54:42;;;;;;;13.48;2.70;;;;;;;;;;6268109;28;20064;-77
2023/08/13 00:57:44;;;;;;;17.20;2.75;;;;;;;;;;6253698;28;20067;-77
2023/08/13 01:00:46;;;;;;;18.15;2.67;;;;;;;;;;6250953;28;20079;-77
2023/08/13 01:03:48;;;;;;;17.38;2.78;;;;;;;;;;6247381;28;20044;-78
2023/08/13 01:07:03;;;;;;;12.63;2.40;;;;;;;;;;6258197;28;20091;-78
2023/08/13 01:10:30;;;;;;;16.98;3.08;;;;;;;;;;6248197;28;20044;-77
2023/08/13 01:13:42;;;;;;;13.65;2.72;;;;;;;;;;6268880;28;20052;-77
2023/08/13 01:16:46;;;;;;;15.00;3.15;;;;;;;;;;6268008;28;20044;-78
2023/08/13 01:19:48;;;;;;;6.05;2.83;;;;;;;;;;6248621;28;20045;-78
2023/08/13 01:22:50;;;;;;;8.13;2.78;;;;;;;;;;6247805;28;20075;-78
2023/08/13 01:25:57;;;;;;;12.13;2.75;;;;;;;;;;6269328;28;20049;-79
2023/08/13 01:29:09;;;;;;;15.05;3.58;;;;;;;;;;6256693;28;20124;-77
2023/08/13 01:32:13;;;;;;;14.50;2.95;;;;;;;;;;6249226;28;20273;-78
2023/08/13 01:35:19;;;;;;;12.68;3.03;;;;;;;;;;6266953;28;20137;-78
2023/08/13 01:38:21;;;;;;;35.92;3.63;;;;;;;;;;6248833;28;20702;-78
2023/08/13 01:41:23;;;;;;;22.42;3.00;;;;;;;;;;6252127;28;20057;-78
2023/08/13 01:44:24;;;;;;;20.77;3.05;;;;;;;;;;6291433;28;20049;-77
2023/08/13 01:47:26;;;;;;;37.92;3.65;;;;;;;;;;6265248;28;21768;-78
2023/08/13 01:50:29;;;;;;;16.38;3.33;;;;;;;;;;6263799;28;20037;-77
2023/08/13 01:53:33;;;;;;;9.23;3.05;;;;;;;;;;6272779;28;20352;-77
2023/08/13 01:56:34;;;;;;;17.95;3.40;;;;;;;;;;6252843;28;20056;-78
2023/08/13 01:59:37;;;;;;;11.63;3.47;;;;;;;;;;6298988;28;20037;-77
2023/08/13 02:02:38;;;;;;;9.27;3.70;;;;;;;;;;6268285;28;20049;-77
2023/08/13 02:05:41;;;;;;;23.85;4.22;;;;;;;;;;6267894;28;20049;-78
2023/08/13 02:08:43;;;;;;;11.23;3.50;;;;;;;;;;6262844;28;20116;-76
2023/08/13 02:11:45;;;;;;;;;;;;;;;;;;6256884;28;20053;-77
2023/08/13 02:14:47;;;;;;;17.88;3.45;;;;;;;;;;6253373;28;20003;-77
2023/08/13 02:17:49;;;;;;;11.50;3.03;;;;;;;;;;6269992;28;20041;-76
2023/08/13 02:20:51;;;;;;;10.68;2.95;;;;;;;;;;6245081;28;20045;-78
2023/08/13 02:23:52;;;;;;;30.35;3.83;;;;;;;;;;6273274;28;20049;-78
2023/08/13 02:26:54;;;;;;;6.38;2.63;;;;;;;;;;6263312;28;20056;-77
2023/08/13 02:29:55;;;;;;;18.42;3.70;;;;;;;;;;6264316;28;20049;-77
2023/08/13 02:32:58;;;;;;;27.70;4.40;;;;;;;;;;6274705;28;20126;-78
2023/08/13 02:36:00;;;;;;;24.63;3.55;;;;;;;;;;6260432;28;20464;-77
2023/08/13 02:39:02;;;;;;;8.02;3.00;;;;;;;;;;6286692;28;20048;-75
2023/08/13 02:42:04;;;;;;;10.20;3.17;;;;;;;;;;6254930;28;20049;-77
2023/08/13 02:45:06;;;;;;;9.07;3.60;;;;;;;;;;6257261;28;20388;-77
2023/08/13 02:48:08;;;;;;;23.60;4.13;;;;;;;;;;6237334;28;21244;-77
2023/08/13 02:51:09;;;;;;;10.48;4.00;;;;;;;;;;6254634;28;20068;-77
2023/08/13 02:54:11;;;;;;;32.17;4.40;;;;;;;;;;6252140;28;20044;-77
2023/08/13 02:57:13;;;;;;;29.75;4.05;;;;;;;;;;6275650;28;20052;-77
2023/08/13 03:00:15;;;;;;;26.45;3.78;;;;;;;;;;6277221;28;20576;-77
2023/08/13 03:03:16;;;;;;;16.50;3.65;;;;;;;;;;6248633;28;20049;-76
2023/08/13 03:06:22;;;;;;;23.48;4.20;;;;;;;;;;6268602;28;20048;-77
2023/08/13 03:09:24;;;;;;;18.15;3.90;;;;;;;;;;6278486;28;20051;-76
2023/08/13 03:12:25;;;;;;;31.38;3.95;;;;;;;;;;6239958;28;20048;-76
2023/08/13 03:15:27;;;;;;;16.40;3.35;;;;;;;;;;6248486;28;20040;-77
2023/08/13 03:18:29;;;;;;;10.85;3.53;;;;;;;;;;6281428;28;20045;-77
2023/08/13 03:21:33;;;;;;;9.00;3.20;;;;;;;;;;6258428;28;20441;-77
2023/08/13 03:24:35;;;;;;;4.00;2.58;;;;;;;;;;6279522;28;20426;-77
2023/08/13 03:27:37;;;;;;;3.88;2.42;;;;;;;;;;6262757;28;20032;-75
2023/08/13 03:30:42;;;;;;;33.63;3.20;;;;;;;;;;6244396;28;20544;-76
2023/08/13 03:33:44;;;;;;;12.13;2.47;;;;;;;;;;6258370;28;20052;-76
2023/08/13 03:36:47;;;;;;;5.97;2.72;;;;;;;;;;6277552;28;20830;-75
2023/08/13 03:39:49;;;;;;;7.78;2.95;;;;;;;;;;6258174;28;20507;-76
2023/08/13 03:42:51;;;;;;;6.15;2.85;;;;;;;;;;6286728;28;20037;-76
2023/08/13 03:45:53;;;;;;;5.45;2.80;;;;;;;;;;6253785;28;20055;-76
2023/08/13 03:48:55;;;;;;;6.32;3.00;;;;;;;;;;6254722;28;20488;-73
2023/08/13 03:51:58;;;;;;;6.35;2.70;;;;;;;;;;6249636;28;20041;-75
2023/08/13 03:55:01;;;;;;;;;;;;;;;;;;6268348;28;20396;-74
2023/08/13 03:58:03;;;;;;;12.32;3.00;;;;;;;;;;6291065;28;19928;-76
2023/08/13 04:01:07;;;;;;;6.45;2.72;;;;;;;;;;6269354;28;20123;-76
2023/08/13 04:04:13;;;;;;;27.67;3.58;;;;;;;;;;6287703;28;20537;-76
2023/08/13 04:07:15;;;;;;;38.83;3.80;;;;;;;;;;6253313;28;20528;-75
2023/08/13 04:10:16;;;;;;;6.40;3.10;;;;;;;;;;6268871;28;20118;-75
2023/08/13 04:13:19;;;;;;;4.47;3.15;;;;;;;;;;6274962;28;20048;-76
2023/08/13 04:16:21;;;;;;;23.02;3.28;;;;;;;;;;6290280;28;20052;-76
2023/08/13 04:19:24;;;;;;;;;;;;;;;;;;6257344;28;20040;-76
2023/08/13 04:22:25;;;;;;;4.35;2.92;;;;;;;;;;6257109;28;19921;-76
2023/08/13 04:25:27;;;;;;;8.73;2.93;;;;;;;;;;6260969;28;20056;-75
2023/08/13 04:28:29;;;;;;;3.42;2.40;;;;;;;;;;6274600;28;20553;-76
2023/08/13 04:31:31;;;;;;;2.83;2.08;;;;;;;;;;6256959;28;20041;-74
2023/08/13 04:34:32;;;;;;;4.05;2.28;;;;;;;;;;6256755;28;20041;-77
2023/08/13 04:37:34;;;;;;;4.78;2.63;;;;;;;;;;6253955;28;20044;-77
2023/08/13 04:40:36;;;;;;;11.07;2.83;;;;;;;;;;6257311;28;20049;-77
2023/08/13 04:43:38;;;;;;;6.25;2.58;;;;;;;;;;6261391;28;20049;-77
2023/08/13 04:46:40;;;;;;;3.90;2.70;;;;;;;;;;6290671;28;20052;-76
2023/08/13 04:49:41;;;;;;;4.15;2.92;;;;;;;;;;6258977;28;20048;-75
2023/08/13 04:52:44;;;;;;;3.77;2.77;;;;;;;;;;6252738;28;20069;-75
2023/08/13 04:55:49;;;;;;;3.60;2.75;;;;;;;;;;6260853;28;20052;-77
2023/08/13 04:58:51;;;;;;;4.73;2.87;;;;;;;;;;6254559;28;20072;-76
2023/08/13 05:01:53;;;;;;;5.72;3.20;;;;;;;;;;6258939;28;20102;-76
2023/08/13 05:04:55;;;;;;;5.07;3.35;;;;;;;;;;6257610;28;20427;-76
2023/08/13 05:07:57;;;;;;;3.90;3.03;;;;;;;;;;6254252;28;20041;-77
2023/08/13 05:11:00;;;;;;;7.82;3.95;;;;;;;;;;6257861;28;20099;-77
2023/08/13 05:14:02;;;;;;;15.23;4.60;;;;;;;;;;6255476;28;20045;-77
2023/08/13 05:17:22;;;;;;;8.00;4.40;;;;;;;;;;6258438;28;20084;-77
2023/08/13 05:20:25;;;;;;;6.03;3.75;;;;;;;;;;6269151;28;20059;-77
2023/08/13 05:23:26;;;;;;;6.53;4.10;;;;;;;;;;6255281;28;20415;-77
2023/08/13 05:26:28;;;;;;;6.20;3.85;;;;;;;;;;6258103;28;20197;-77
2023/08/13 05:29:30;;;;;;;8.00;4.25;;;;;;;;;;6258597;28;20341;-77
2023/08/13 05:32:31;;;;;;;7.13;3.97;;;;;;;;;;6257482;28;20045;-77
2023/08/13 05:35:33;;;;;;;7.40;4.22;;;;;;;;;;6261044;28;20577;-77
2023/08/13 05:38:35;;;;;;;7.50;4.05;;;;;;;;;;6254674;28;20053;-76
2023/08/13 05:41:39;;;;;;;7.18;4.13;;;;;;;;;;6262095;28;20052;-76
2023/08/13 05:44:41;;;;;;;8.43;4.00;;;;;;;;;;6282922;28;20067;-76
2023/08/13 05:47:43;;;;;;;9.07;4.20;;;;;;;;;;6258141;28;20518;-76
2023/08/13 05:50:45;;;;;;;16.63;5.00;;;;;;;;;;6270850;28;20048;-77
2023/08/13 05:53:47;;;;;;;8.68;4.38;;;;;;;;;;6236373;28;20367;-77
2023/08/13 05:56:49;;;;;;;9.80;3.85;;;;;;;;;;6265974;28;20067;-75
2023/08/13 05:59:50;;;;;;;12.23;4.47;;;;;;;;;;6264683;28;20061;-79
2023/08/13 06:02:52;;;;;;;9.73;4.22;;;;;;;;;;6266589;28;20052;-79
2023/08/13 06:05:55;;;;;;;8.52;4.07;;;;;;;;;;6263956;28;20050;-77
2023/08/13 06:08:57;;;;;;;;;;;;;;;;;;6277483;28;20091;-78
2023/08/13 06:11:58;;;;;;;7.97;3.50;;;;;;;;;;6285368;28;19971;-78
2023/08/13 06:15:00;;;;;;;10.50;4.18;;;;;;;;;;6266275;28;20045;-78
2023/08/13 06:18:02;;;;;;;9.60;3.72;;;;;;;;;;6261625;28;20048;-76
2023/08/13 06:21:04;;;;;;;7.43;3.80;;;;;;;;;;6269810;28;20049;-77
2023/08/13 06:24:05;;;;;;;9.23;3.83;;;;;;;;;;6268821;28;20080;-78
2023/08/13 06:27:07;;;;;;;8.70;4.22;;;;;;;;;;6284977;28;20049;-78
2023/08/13 06:30:09;;;;;;;7.50;4.27;;;;;;;;;;6262417;28;20049;-78
2023/08/13 06:33:12;;;;;;;6.70;3.95;;;;;;;;;;6265685;28;20123;-78
2023/08/13 06:36:13;;;;;;;8.93;4.20;;;;;;;;;;6260642;28;20041;-77
2023/08/13 06:39:15;;;;;;;9.63;3.95;;;;;;;;;;6271998;28;20045;-75
2023/08/13 06:42:17;;;;;;;8.57;4.15;;;;;;;;;;6280641;28;20076;-76
2023/08/13 06:45:21;;;;;;;8.77;4.30;;;;;;;;;;6292897;28;20040;-77
2023/08/13 06:48:23;;;;;;;6.45;4.00;;;;;;;;;;6293960;28;20414;-77
2023/08/13 06:51:25;;;;;;;5.45;3.58;;;;;;;;;;6271430;28;20048;-79
2023/08/13 06:54:27;;;;;;;7.47;3.85;;;;;;;;;;6292787;28;20037;-79
2023/08/13 06:57:28;;;;;;;6.10;3.60;;;;;;;;;;6275009;28;20127;-76
2023/08/13 07:00:30;;;;;;;4.88;3.03;;;;;;;;;;6302271;28;20036;-79
2023/08/13 07:03:41;;;;;;;5.50;3.88;;;;;;;;;;6286127;28;20063;-79
2023/08/13 07:06:43;;;;;;;7.32;4.07;;;;;;;;;;6268913;28;20044;-77
2023/08/13 07:09:45;;;;;;;6.00;3.83;;;;;;;;;;6271917;28;20041;-78
2023/08/13 07:12:46;;;;;;;5.75;4.07;;;;;;;;;;6286373;28;20494;-77
2023/08/13 07:15:48;;;;;;;7.05;4.18;;;;;;;;;;6261722;28;20686;-79
2023/08/13 07:18:50;;;;;;;6.03;3.50;;;;;;;;;;6276851;28;20503;-78
2023/08/13 07:21:51;;;;;;;4.22;3.35;;;;;;;;;;6259857;28;20040;-79
2023/08/13 07:24:54;;;;;;;4.80;3.28;;;;;;;;;;6263210;28;20072;-79
2023/08/13 07:27:56;;;;;;;3.95;3.08;;;;;;;;;;6262868;28;20165;-79
2023/08/13 07:30:58;;;;;;;5.55;3.67;;;;;;;;;;6261330;28;20051;-79
2023/08/13 07:34:00;;;;;;;4.43;3.20;;;;;;;;;;6266875;28;20045;-79
2023/08/13 07:37:02;;;;;;;5.57;3.03;;;;;;;;;;6261390;28;20069;-79
2023/08/13 07:40:07;;;;;;;4.20;3.20;;;;;;;;;;6260598;28;20071;-78
2023/08/13 07:43:10;;;;;;;4.25;3.20;;;;;;;;;;6271437;28;20067;-80
2023/08/13 07:46:11;;;;;;;6.25;3.58;;;;;;;;;;6267207;28;20045;-79
2023/08/13 07:49:13;;;;;;;6.80;3.22;;;;;;;;;;6267514;28;20090;-79
2023/08/13 07:52:14;;;;;;;4.55;3.53;;;;;;;;;;6264913;28;20041;-79
2023/08/13 07:55:17;;;;;;;5.28;3.42;;;;;;;;;;6267800;28;20083;-80
2023/08/13 07:58:18;;;;;;;4.65;3.38;;;;;;;;;;6263162;28;20138;-80
2023/08/13 08:01:20;;;;;;;6.22;3.13;;;;;;;;;;6259091;28;20045;-82
2023/08/13 08:04:22;;;;;;;3.83;3.13;;;;;;;;;;6292665;28;20099;-79
2023/08/13 08:07:25;;;;;;;6.15;3.30;;;;;;;;;;6266647;28;20053;-82
2023/08/13 08:10:28;;;;;;;4.47;2.97;;;;;;;;;;6259202;28;20048;-78
2023/08/13 08:13:33;;;;;;;3.28;2.85;;;;;;;;;;6276609;28;20454;-79
2023/08/13 08:16:35;;;;;;;2.58;2.35;;;;;;;;;;6258935;28;20095;-78
2023/08/13 08:19:36;;;;;;;3.63;3.08;;;;;;;;;;6277554;28;20052;-79
2023/08/13 08:22:38;;;;;;;3.08;2.78;;;;;;;;;;6259913;28;20049;-79
2023/08/13 08:25:39;;;;;;;3.72;2.80;;;;;;;;;;6261716;28;20041;-78
2023/08/13 08:28:41;;;;;;;4.43;2.55;;;;;;;;;;6259351;28;20083;-78
2023/08/13 08:31:45;;;;;;;5.38;3.20;;;;;;;;;;6258643;28;20063;-78
2023/08/13 08:34:47;;;;;;;3.28;2.70;;;;;;;;;;6257851;28;20053;-79
2023/08/13 08:37:49;;;;;;;3.63;2.45;;;;;;;;;;6242045;28;20056;-80
2023/08/13 08:40:53;;;;;;;3.03;2.40;;;;;;;;;;6261316;28;20116;-80
2023/08/13 08:43:57;;;;;;;2.60;2.40;;;;;;;;;;6258778;28;20061;-78
2023/08/13 08:47:00;;;;;;;3.92;2.33;;;;;;;;;;6256372;28;20041;-78
2023/08/13 08:50:04;;;;;;;3.10;2.80;;;;;;;;;;6257306;28;20033;-77
2023/08/13 08:53:06;;;;;;;3.13;2.65;;;;;;;;;;6258363;28;20037;-78
2023/08/13 08:56:08;;;;;;;4.30;2.70;;;;;;;;;;6262950;28;20521;-77
2023/08/13 08:59:09;;;;;;;2.95;2.60;;;;;;;;;;6279103;28;20125;-78
2023/08/13 09:02:12;;;;;;;2.92;2.63;;;;;;;;;;6260366;28;21124;-77
2023/08/13 09:05:15;;;;;;;5.57;2.70;;;;;;;;;;6262074;28;20041;-77
2023/08/13 09:08:19;;;;;;;2.60;2.40;;;;;;;;;;6258929;28;20277;-77
2023/08/13 09:11:21;;;;;;;3.63;2.50;;;;;;;;;;6257573;28;20037;-79
2023/08/13 09:14:24;;;;;;;3.10;2.80;;;;;;;;;;6262356;28;20566;-79
2023/08/13 09:17:25;;;;;;;;;;;;;;;;;;6263138;28;20045;-78
2023/08/13 09:20:27;;;;;;;3.55;2.42;;;;;;;;;;6266712;28;19927;-78
2023/08/13 09:23:29;;;;;;;2.70;2.30;;;;;;;;;;6248633;28;20418;-79
2023/08/13 09:26:31;;;;;;;3.60;2.25;;;;;;;;;;6263199;28;20053;-78
2023/08/13 09:29:33;;;;;;;2.70;2.40;;;;;;;;;;6260696;28;20048;-79
2023/08/13 09:32:35;;;;;;;5.07;2.28;;;;;;;;;;6260473;28;20053;-80
2023/08/13 09:35:37;;;;;;;4.30;2.30;;;;;;;;;;6244613;28;20063;-78
2023/08/13 09:38:39;;;;;;;2.97;2.10;;;;;;;;;;6243453;28;20072;-80
2023/08/13 09:41:40;;;;;;;2.30;2.10;;;;;;;;;;6262003;28;20507;-78
2023/08/13 09:44:42;;;;;;;3.67;1.80;;;;;;;;;;6243717;28;20120;-77
2023/08/13 09:47:45;;;;;;;2.40;2.20;;;;;;;;;;6260310;28;20053;-78
2023/08/13 09:50:49;;;;;;;2.30;1.65;;;;;;;;;;6261325;28;20514;-79
2023/08/13 09:53:56;;;;;;;1.77;1.67;;;;;;;;;;6265287;28;20074;-79
2023/08/13 09:57:03;;;;;;;2.83;1.83;;;;;;;;;;6266031;28;20506;-79
2023/08/13 10:00:07;;;;;;;20.05;17.85;;;;;;;;;;6285355;28;20048;-77
2023/08/13 10:03:09;;;;;;;12.52;7.28;;;;;;;;;;6271578;28;20055;-78
2023/08/13 10:06:14;;;;;;;4.60;2.10;;;;;;;;;;6284165;28;20572;-80
2023/08/13 10:09:16;;;;;;;17.52;10.52;;;;;;;;;;6288258;28;20063;-80
2023/08/13 10:12:18;;;;;;;22.15;15.57;;;;;;;;;;6281204;28;20051;-78
2023/08/13 10:15:20;;;;;;;16.70;11.80;;;;;;;;;;6312448;28;20583;-78
2023/08/13 10:18:22;;;;;;;;;;;;;;;;;;6315723;28;20455;-78
2023/08/13 10:21:34;;;;;;;5.45;3.63;;;;;;;;;;6284424;28;20332;-78
2023/08/13 10:24:37;;;;;;;2.70;1.70;;;;;;;;;;6286546;28;20052;-76
2023/08/13 10:27:43;;;;;;;;;;;;;;;;;;6286486;28;20053;-77
2023/08/13 10:30:45;;;;;;;2.35;1.70;;;;;;;;;;6261946;28;20013;-77
2023/08/13 10:33:47;;;;;;;3.25;2.00;;;;;;;;;;6284291;28;20047;-77
2023/08/13 10:36:55;;;;;;;2.70;1.77;;;;;;;;;;6284171;28;20525;-76
2023/08/13 10:39:56;;;;;;;2.70;1.83;;;;;;;;;;6282406;28;20158;-78
2023/08/13 10:42:59;;;;;;;1.75;1.58;;;;;;;;;;6253506;28;20131;-77
2023/08/13 10:46:05;;;;;;;3.10;1.73;;;;;;;;;;6268652;28;20575;-77
2023/08/13 10:49:07;;;;;;;4.25;1.92;;;;;;;;;;6284752;28;20043;-77
2023/08/13 10:52:09;;;;;;;2.58;1.80;;;;;;;;;;6278265;28;20051;-77
2023/08/13 10:55:11;;;;;;;3.22;2.05;;;;;;;;;;6228818;28;20574;-77
2023/08/13 10:58:22;;;;;;;3.47;1.87;;;;;;;;;;6257840;28;20060;-78
2023/08/13 11:01:24;;;;;;;2.45;1.77;;;;;;;;;;6254596;28;20515;-77
2023/08/13 11:04:27;;;;;;;3.22;1.70;;;;;;;;;;6227873;28;20047;-79
2023/08/13 11:07:31;;;;;;;2.78;2.10;;;;;;;;;;6279085;28;20044;-79
2023/08/13 11:10:33;;;;;;;2.60;1.88;;;;;;;;;;6277238;28;20499;-78
2023/08/13 11:13:35;;;;;;;3.20;2.00;;;;;;;;;;6281892;28;20048;-77
2023/08/13 11:16:37;;;;;;;2.90;1.67;;;;;;;;;;6278767;28;20045;-82
2023/08/13 11:19:39;;;;;;;4.72;1.92;;;;;;;;;;6289185;28;20067;-81
2023/08/13 11:22:41;;;;;;;3.33;1.90;;;;;;;;;;6274307;28;20516;-79
2023/08/13 11:25:48;;;;;;;2.05;1.80;;;;;;;;;;6269741;28;20072;-78
2023/08/13 11:28:51;;;;;;;2.58;1.85;;;;;;;;;;6293673;28;20617;-79
2023/08/13 11:31:53;;;;;;;5.25;2.65;;;;;;;;;;6283124;28;20040;-78
2023/08/13 11:34:54;;;;;;;4.70;2.10;;;;;;;;;;6279837;28;20052;-78
2023/08/13 11:37:56;;;;;;;3.67;1.98;;;;;;;;;;6280945;28;20147;-79
2023/08/13 11:40:58;;;;;;;2.42;2.08;;;;;;;;;;6280372;28;20047;-79
2023/08/13 11:44:01;;;;;;;3.80;2.03;;;;;;;;;;6280346;28;20048;-78
2023/08/13 11:47:06;;;;;;;2.80;1.77;;;;;;;;;;6280651;28;20059;-77
2023/08/13 11:50:18;;;;;;;3.53;1.80;;;;;;;;;;6240161;28;20077;-79
2023/08/13 11:53:20;;;;;;;5.38;2.00;;;;;;;;;;6252526;28;20080;-79
2023/08/13 11:56:22;;;;;;;2.67;1.95;;;;;;;;;;6258261;28;20056;-79
2023/08/13 11:59:25;;;;;;;2.87;1.93;;;;;;;;;;6258777;28;20507;-79
2023/08/13 12:02:27;;;;;;;2.97;1.60;;;;;;;;;;6256959;28;20592;-79
2023/08/13 12:05:31;;;;;;;2.73;1.80;;;;;;;;;;6260055;28;20435;-79
2023/08/13 12:08:32;;;;;;;4.82;1.80;;;;;;;;;;6282607;28;20122;-79
2023/08/13 12:11:34;;;;;;;3.08;1.60;;;;;;;;;;6252462;28;20069;-78
2023/08/13 12:14:44;;;;;;;3.40;1.90;;;;;;;;;;6255286;28;20041;-79
2023/08/13 12:17:45;;;;;;;2.83;1.65;;;;;;;;;;6251334;28;20701;-79
2023/08/13 12:20:47;;;;;;;4.15;1.80;;;;;;;;;;6252461;28;20052;-78
2023/08/13 12:23:49;;;;;;;3.13;1.95;;;;;;;;;;6255255;28;20045;-77
2023/08/13 12:26:51;;;;;;;4.05;1.73;;;;;;;;;;6256318;28;20551;-78
2023/08/13 12:29:52;;;;;;;4.45;1.90;;;;;;;;;;6284851;28;20060;-78
2023/08/13 12:32:54;;;;;;;3.75;1.70;;;;;;;;;;6261260;28;20044;-78
2023/08/13 12:35:56;;;;;;;4.55;1.58;;;;;;;;;;6266315;28;20044;-79
2023/08/13 12:38:58;;;;;;;3.23;1.70;;;;;;;;;;6239707;28;20049;-77
2023/08/13 12:41:59;;;;;;;3.38;1.50;;;;;;;;;;6258013;28;20494;-79
2023/08/13 12:45:03;;;;;;;3.08;1.75;;;;;;;;;;6263567;28;20048;-78
2023/08/13 12:48:05;;;;;;;3.58;1.70;;;;;;;;;;6239589;28;20049;-78
2023/08/13 12:51:07;;;;;;;3.07;1.50;;;;;;;;;;6255688;28;20045;-79
2023/08/13 12:54:09;;;;;;;5.03;1.87;;;;;;;;;;6245938;28;20052;-78
2023/08/13 12:57:10;;;;;;;6.18;2.00;;;;;;;;;;6260554;28;20076;-78
2023/08/13 13:00:12;;;;;;;2.27;1.63;;;;;;;;;;6244169;28;20067;-78
2023/08/13 13:03:14;;;;;;;3.17;2.20;;;;;;;;;;6283204;28;20075;-78
2023/08/13 13:06:15;;;;;;;3.27;1.70;;;;;;;;;;6266925;28;20121;-77
2023/08/13 13:09:17;;;;;;;2.42;1.55;;;;;;;;;;6288373;28;20045;-75
2023/08/13 13:12:22;;;;;;;3.92;1.75;;;;;;;;;;6259905;28;20048;-78
2023/08/13 13:15:24;;;;;;;3.90;1.60;;;;;;;;;;6261560;28;20041;-78
2023/08/13 13:18:26;;;;;;;2.63;1.73;;;;;;;;;;6264719;28;20041;-76
2023/08/13 13:21:27;;;;;;;3.87;1.90;;;;;;;;;;6272382;28;20683;-78
2023/08/13 13:24:29;;;;;;;3.80;1.85;;;;;;;;;;6291432;28;20047;-78
2023/08/13 13:27:31;;;;;;;1.83;1.50;;;;;;;;;;6289109;28;20044;-78
2023/08/13 13:30:33;;;;;;;3.60;1.43;;;;;;;;;;6286624;28;20055;-78
2023/08/13 13:33:34;;;;;;;2.90;1.53;;;;;;;;;;6288730;28;20036;-78
2023/08/13 13:36:36;;;;;;;2.93;1.50;;;;;;;;;;6291284;28;20044;-78
2023/08/13 13:39:38;;;;;;;2.72;1.50;;;;;;;;;;6294209;28;20395;-79
2023/08/13 13:42:39;;;;;;;3.47;1.60;;;;;;;;;;6271143;28;20048;-81
2023/08/13 13:45:41;;;;;;;2.20;1.53;;;;;;;;;;6284194;28;20479;-74
2023/08/13 13:48:43;;;;;;;1.85;1.40;;;;;;;;;;6276476;28;20045;-75
2023/08/13 13:51:45;;;;;;;2.63;1.50;;;;;;;;;;6288404;28;20636;-77
2023/08/13 13:54:46;;;;;;;2.33;1.30;;;;;;;;;;6286029;28;20128;-78
2023/08/13 13:57:48;;;;;;;4.63;1.20;;;;;;;;;;6299740;28;20430;-78
2023/08/13 14:00:50;;;;;;;3.50;1.48;;;;;;;;;;6258748;28;20045;-76
2023/08/13 14:03:52;;;;;;;3.17;1.55;;;;;;;;;;6285669;28;20033;-77
2023/08/13 14:06:54;;;;;;;2.92;1.40;;;;;;;;;;6286346;28;20056;-79
2023/08/13 14:09:56;;;;;;;2.73;1.30;;;;;;;;;;6281328;28;20131;-78
2023/08/13 14:12:58;;;;;;;2.47;1.38;;;;;;;;;;6283703;28;20049;-76
2023/08/13 14:16:01;;;;;;;2.70;1.53;;;;;;;;;;6286162;28;20040;-79
2023/08/13 14:19:03;;;;;;;3.35;1.55;;;;;;;;;;6284489;28;20124;-79
2023/08/13 14:22:05;;;;;;;5.28;1.67;;;;;;;;;;6281415;28;20067;-79
2023/08/13 14:25:07;;;;;;;5.72;1.30;;;;;;;;;;6282333;28;20060;-78
2023/08/13 14:28:09;;;;;;;2.65;1.30;;;;;;;;;;6295275;28;20064;-78
2023/08/13 14:31:10;;;;;;;3.30;1.60;;;;;;;;;;6271615;28;20102;-78
2023/08/13 14:34:12;;;;;;;2.73;1.30;;;;;;;;;;6273645;28;20053;-78
2023/08/13 14:37:14;;;;;;;2.63;1.38;;;;;;;;;;6267965;28;20041;-79
2023/08/13 14:40:16;;;;;;;1.47;1.10;;;;;;;;;;6259016;28;20140;-79
2023/08/13 14:43:18;;;;;;;;;;;;;;;;;;6257451;28;20051;-79
2023/08/13 14:46:20;;;;;;;4.30;1.48;;;;;;;;;;6255904;28;20426;-76
2023/08/13 14:49:23;;;;;;;2.65;1.10;;;;;;;;;;6242093;28;20045;-76
2023/08/13 14:52:25;;;;;;;2.67;1.37;;;;;;;;;;6254010;28;20138;-78
2023/08/13 14:55:26;;;;;;;2.23;1.30;;;;;;;;;;6261150;28;20530;-79
2023/08/13 14:58:28;;;;;;;3.93;1.70;;;;;;;;;;6242852;28;20071;-76
2023/08/13 15:01:30;;;;;;;4.33;1.57;;;;;;;;;;6265426;28;20045;-78
2023/08/13 15:04:32;;;;;;;4.23;1.50;;;;;;;;;;6298593;28;20051;-77
2023/08/13 15:07:33;;;;;;;2.33;1.67;;;;;;;;;;6267060;28;20110;-78
2023/08/13 15:10:36;;;;;;;3.07;1.53;;;;;;;;;;6262607;28;20048;-77
2023/08/13 15:13:37;;;;;;;2.38;1.50;;;;;;;;;;6280723;28;20049;-79
2023/08/13 15:16:39;;;;;;;2.93;1.50;;;;;;;;;;6276808;28;20044;-76
2023/08/13 15:19:41;;;;;;;4.70;1.63;;;;;;;;;;6275040;28;20175;-77
2023/08/13 15:22:42;;;;;;;3.05;1.50;;;;;;;;;;6250686;28;20076;-77
2023/08/13 15:25:44;;;;;;;3.10;1.50;;;;;;;;;;6252485;28;20052;-75
2023/08/13 15:28:53;;;;;;;2.97;1.52;;;;;;;;;;6255897;28;20041;-77
2023/08/13 15:31:55;;;;;;;3.20;1.50;;;;;;;;;;6234628;28;20072;-78
2023/08/13 15:34:57;;;;;;;1.88;1.40;;;;;;;;;;6256700;28;20056;-77
2023/08/13 15:37:58;;;;;;;2.85;1.55;;;;;;;;;;6257523;28;20049;-76
2023/08/13 15:41:00;;;;;;;4.73;1.43;;;;;;;;;;6260944;28;20055;-77
2023/08/13 15:44:02;;;;;;;2.78;1.50;;;;;;;;;;6237875;28;20128;-77
2023/08/13 15:47:04;;;;;;;3.33;1.40;;;;;;;;;;6249939;28;20057;-77
2023/08/13 15:50:06;;;;;;;4.20;1.90;;;;;;;;;;6258946;28;20041;-78
2023/08/13 15:53:07;;;;;;;2.28;1.17;;;;;;;;;;6266048;28;20442;-77
2023/08/13 15:56:10;;;;;;;1.80;1.30;;;;;;;;;;6288301;28;20048;-78
2023/08/13 15:59:11;;;;;;;4.53;1.80;;;;;;;;;;6282483;28;20119;-75
2023/08/13 16:02:13;;;;;;;2.30;1.70;;;;;;;;;;6299517;28;20060;-77
2023/08/13 16:05:15;;;;;;;3.47;1.75;;;;;;;;;;6267924;28;20051;-78
2023/08/13 16:08:18;;;;;;;3.93;1.60;;;;;;;;;;6285879;28;20758;-78
2023/08/13 16:11:19;;;;;;;;;;;;;;;;;;6285128;28;20044;-78
2023/08/13 16:14:21;;;;;;;3.28;1.38;;;;;;;;;;6305329;28;19981;-78
2023/08/13 16:17:22;;;;;;;2.93;1.40;;;;;;;;;;6259489;28;20044;-78
2023/08/13 16:20:24;;;;;;;3.03;1.63;;;;;;;;;;6259733;28;20068;-75
2023/08/13 16:23:26;;;;;;;2.80;1.57;;;;;;;;;;6271487;28;20044;-76
2023/08/13 16:26:28;;;;;;;2.95;1.70;;;;;;;;;;6270564;28;20456;-77
2023/08/13 16:29:29;;;;;;;6.00;1.50;;;;;;;;;;6291300;28;20414;-77
2023/08/13 16:32:33;;;;;;;2.20;1.42;;;;;;;;;;6283230;28;20041;-77
2023/08/13 16:35:35;;;;;;;4.70;1.70;;;;;;;;;;6294069;28;20033;-76
2023/08/13 16:38:37;;;;;;;3.97;1.37;;;;;;;;;;6290490;28;20044;-76
2023/08/13 16:41:38;;;;;;;4.13;1.43;;;;;;;;;;6290617;28;20052;-79
2023/08/13 16:44:40;;;;;;;3.20;1.35;;;;;;;;;;6284049;28;20056;-78
2023/08/13 16:47:42;;;;;;;2.60;1.33;;;;;;;;;;6292263;28;20052;-79
2023/08/13 16:50:44;;;;;;;1.87;1.40;;;;;;;;;;6294746;28;20226;-78
2023/08/13 16:53:45;;;;;;;4.53;1.70;;;;;;;;;;6295197;28;20041;-77
2023/08/13 16:56:47;;;;;;;2.40;1.27;;;;;;;;;;6265558;28;20394;-75
2023/08/13 16:59:52;;;;;;;2.65;1.38;;;;;;;;;;6285526;28;20059;-77
2023/08/13 17:02:53;;;;;;;3.43;1.83;;;;;;;;;;6280801;28;20037;-78
2023/08/13 17:05:55;;;;;;;4.03;1.60;;;;;;;;;;6281620;28;20485;-77
2023/08/13 17:08:57;;;;;;;2.00;1.37;;;;;;;;;;6285985;28;20040;-77
2023/08/13 17:11:59;;;;;;;3.07;1.30;;;;;;;;;;6285652;28;20041;-78
2023/08/13 17:15:00;;;;;;;2.40;1.30;;;;;;;;;;6286260;28;20110;-77
2023/08/13 17:18:22;;;;;;;3.10;1.45;;;;;;;;;;6293378;28;20447;-76
2023/08/13 17:21:24;;;;;;;2.13;1.43;;;;;;;;;;6307285;28;20048;-77
2023/08/13 17:24:25;;;;;;;2.67;1.50;;;;;;;;;;6304468;28;20067;-78
2023/08/13 17:27:27;;;;;;;4.37;1.47;;;;;;;;;;6290156;28;20083;-79
2023/08/13 17:30:29;;;;;;;1.98;1.23;;;;;;;;;;6292260;28;20126;-77
2023/08/13 17:33:30;;;;;;;2.67;1.30;;;;;;;;;;6291604;28;20072;-78
2023/08/13 17:36:32;;;;;;;2.60;1.45;;;;;;;;;;6285498;28;20056;-79
2023/08/13 17:39:34;;;;;;;4.25;1.60;;;;;;;;;;6272969;28;20056;-77
2023/08/13 17:42:35;;;;;;;6.17;1.70;;;;;;;;;;6291157;28;20059;-78
2023/08/13 17:45:39;;;;;;;5.27;1.40;;;;;;;;;;6285268;28;20055;-77
2023/08/13 17:48:41;;;;;;;3.80;1.50;;;;;;;;;;6283920;28;20048;-77
2023/08/13 17:51:43;;;;;;;3.17;1.58;;;;;;;;;;6283340;28;20060;-79
2023/08/13 17:54:44;;;;;;;3.77;2.10;;;;;;;;;;6271721;28;20072;-78
2023/08/13 17:57:46;;;;;;;5.18;1.90;;;;;;;;;;6287424;28;20072;-78
2023/08/13 18:00:48;;;;;;;1.63;1.30;;;;;;;;;;6288212;28;20066;-78
2023/08/13 18:03:50;;;;;;;4.57;2.00;;;;;;;;;;6289601;28;20048;-78
2023/08/13 18:06:51;;;;;;;5.40;1.73;;;;;;;;;;6283732;28;20070;-76
2023/08/13 18:09:53;;;;;;;4.65;1.67;;;;;;;;;;6262216;28;20056;-78
2023/08/13 18:12:54;;;;;;;4.65;1.60;;;;;;;;;;6284225;28;20068;-77